sensor_id;sensor_type;location;lat;lon;timestamp;P1;durP1;ratioP1;P2;durP2;ratioP2
36443;SDS011;24692;45.642;13.806;2024-02-23T00:02:15;4.07;;;2.57;;
36443;SDS011;24692;45.642;13.806;2024-02-23T00:04:40;4.33;;;2.80;;
36443;SDS011;24692;45.642;13.806;2024-02-23T00:07:06;4.20;;;3.03;;
36443;SDS011;24692;45.642;13.806;2024-02-23T00:09:33;5.30;;;2.87;;
36443;SDS011;24692;45.642;13.806;2024-02-23T00:11:59;3.37;;;2.80;;
36443;SDS011;24692;45.642;13.806;2024-02-23T00:14:24;5.30;;;3.00;;
36443;SDS011;24692;45.642;13.806;2024-02-23T00:16:50;3.97;;;2.73;;
36443;SDS011;24692;45.642;13.806;2024-02-23T00:19:16;5.83;;;3.00;;
36443;SDS011;24692;45.642;13.806;2024-02-23T00:21:43;5.83;;;3.00;;
36443;SDS011;24692;45.642;13.806;2024-02-23T00:24:12;6.00;;;2.80;;
36443;SDS011;24692;45.642;13.806;2024-02-23T00:26:38;6.00;;;2.90;;
36443;SDS011;24692;45.642;13.806;2024-02-23T00:29:04;5.33;;;2.83;;
36443;SDS011;24692;45.642;13.806;2024-02-23T00:31:29;4.87;;;2.60;;
36443;SDS011;24692;45.642;13.806;2024-02-23T00:33:55;4.27;;;3.10;;
36443;SDS011;24692;45.642;13.806;2024-02-23T00:36:21;4.53;;;2.80;;
36443;SDS011;24692;45.642;13.806;2024-02-23T00:38:46;5.57;;;2.77;;
36443;SDS011;24692;45.642;13.806;2024-02-23T00:41:12;5.00;;;3.10;;
36443;SDS011;24692;45.642;13.806;2024-02-23T00:43:39;4.97;;;3.00;;
36443;SDS011;24692;45.642;13.806;2024-02-23T00:46:05;3.67;;;2.57;;
36443;SDS011;24692;45.642;13.806;2024-02-23T00:48:32;4.50;;;2.90;;
36443;SDS011;24692;45.642;13.806;2024-02-23T00:50:57;7.00;;;2.90;;
36443;SDS011;24692;45.642;13.806;2024-02-23T00:53:23;4.00;;;2.50;;
36443;SDS011;24692;45.642;13.806;2024-02-23T00:55:49;7.83;;;2.90;;
36443;SDS011;24692;45.642;13.806;2024-02-23T00:58:14;4.33;;;2.83;;
36443;SDS011;24692;45.642;13.806;2024-02-23T01:00:41;6.13;;;2.73;;
36443;SDS011;24692;45.642;13.806;2024-02-23T01:03:07;6.87;;;2.70;;
36443;SDS011;24692;45.642;13.806;2024-02-23T01:05:32;4.60;;;2.73;;
36443;SDS011;24692;45.642;13.806;2024-02-23T01:07:58;3.30;;;2.50;;
36443;SDS011;24692;45.642;13.806;2024-02-23T01:10:24;3.97;;;2.67;;
36443;SDS011;24692;45.642;13.806;2024-02-23T01:12:49;5.47;;;2.83;;
36443;SDS011;24692;45.642;13.806;2024-02-23T01:15:15;3.10;;;2.60;;
36443;SDS011;24692;45.642;13.806;2024-02-23T01:17:41;5.33;;;2.70;;
36443;SDS011;24692;45.642;13.806;2024-02-23T01:20:07;3.87;;;2.90;;
36443;SDS011;24692;45.642;13.806;2024-02-23T01:22:33;3.73;;;2.70;;
36443;SDS011;24692;45.642;13.806;2024-02-23T01:24:59;6.77;;;2.60;;
36443;SDS011;24692;45.642;13.806;2024-02-23T01:27:25;4.80;;;2.77;;
36443;SDS011;24692;45.642;13.806;2024-02-23T01:29:50;6.83;;;2.83;;
36443;SDS011;24692;45.642;13.806;2024-02-23T01:32:16;3.80;;;2.53;;
36443;SDS011;24692;45.642;13.806;2024-02-23T01:34:42;5.73;;;2.83;;
36443;SDS011;24692;45.642;13.806;2024-02-23T01:37:07;5.53;;;2.67;;
36443;SDS011;24692;45.642;13.806;2024-02-23T01:39:33;4.43;;;2.60;;
36443;SDS011;24692;45.642;13.806;2024-02-23T01:41:59;5.00;;;2.60;;
36443;SDS011;24692;45.642;13.806;2024-02-23T01:44:25;5.07;;;2.70;;
36443;SDS011;24692;45.642;13.806;2024-02-23T01:46:50;3.83;;;2.87;;
36443;SDS011;24692;45.642;13.806;2024-02-23T01:49:16;4.93;;;2.53;;
36443;SDS011;24692;45.642;13.806;2024-02-23T01:51:43;3.33;;;2.40;;
36443;SDS011;24692;45.642;13.806;2024-02-23T01:54:09;4.40;;;2.63;;
36443;SDS011;24692;45.642;13.806;2024-02-23T01:56:35;4.83;;;2.60;;
36443;SDS011;24692;45.642;13.806;2024-02-23T01:59:04;5.83;;;2.80;;
36443;SDS011;24692;45.642;13.806;2024-02-23T02:01:31;4.50;;;2.70;;
36443;SDS011;24692;45.642;13.806;2024-02-23T02:03:57;6.00;;;2.70;;
36443;SDS011;24692;45.642;13.806;2024-02-23T02:06:24;6.90;;;2.83;;
36443;SDS011;24692;45.642;13.806;2024-02-23T02:08:49;6.33;;;3.03;;
36443;SDS011;24692;45.642;13.806;2024-02-23T02:11:15;3.23;;;2.47;;
36443;SDS011;24692;45.642;13.806;2024-02-23T02:13:41;4.57;;;2.80;;
36443;SDS011;24692;45.642;13.806;2024-02-23T02:16:07;6.53;;;2.97;;
36443;SDS011;24692;45.642;13.806;2024-02-23T02:18:33;5.07;;;2.53;;
36443;SDS011;24692;45.642;13.806;2024-02-23T02:20:58;4.47;;;2.77;;
36443;SDS011;24692;45.642;13.806;2024-02-23T02:23:24;4.53;;;2.67;;
36443;SDS011;24692;45.642;13.806;2024-02-23T02:25:53;5.30;;;2.63;;
36443;SDS011;24692;45.642;13.806;2024-02-23T02:28:19;3.17;;;2.47;;
36443;SDS011;24692;45.642;13.806;2024-02-23T02:30:45;2.97;;;2.60;;
36443;SDS011;24692;45.642;13.806;2024-02-23T02:33:11;3.83;;;2.90;;
36443;SDS011;24692;45.642;13.806;2024-02-23T02:35:36;4.50;;;2.63;;
36443;SDS011;24692;45.642;13.806;2024-02-23T02:38:02;4.57;;;2.60;;
36443;SDS011;24692;45.642;13.806;2024-02-23T02:40:28;4.00;;;2.73;;
36443;SDS011;24692;45.642;13.806;2024-02-23T02:42:53;4.13;;;2.50;;
36443;SDS011;24692;45.642;13.806;2024-02-23T02:45:19;6.33;;;3.10;;
36443;SDS011;24692;45.642;13.806;2024-02-23T02:47:45;2.70;;;2.50;;
36443;SDS011;24692;45.642;13.806;2024-02-23T02:50:10;5.73;;;3.03;;
36443;SDS011;24692;45.642;13.806;2024-02-23T02:52:36;5.07;;;2.70;;
36443;SDS011;24692;45.642;13.806;2024-02-23T02:55:02;3.67;;;2.73;;
36443;SDS011;24692;45.642;13.806;2024-02-23T02:57:28;4.07;;;2.60;;
36443;SDS011;24692;45.642;13.806;2024-02-23T02:59:54;4.27;;;2.90;;
36443;SDS011;24692;45.642;13.806;2024-02-23T03:02:20;3.50;;;2.67;;
36443;SDS011;24692;45.642;13.806;2024-02-23T03:04:46;6.87;;;3.07;;
36443;SDS011;24692;45.642;13.806;2024-02-23T03:07:18;6.43;;;4.10;;
36443;SDS011;24692;45.642;13.806;2024-02-23T03:09:44;3.37;;;2.60;;
36443;SDS011;24692;45.642;13.806;2024-02-23T03:12:10;3.30;;;2.50;;
36443;SDS011;24692;45.642;13.806;2024-02-23T03:14:35;4.23;;;2.80;;
36443;SDS011;24692;45.642;13.806;2024-02-23T03:17:06;5.50;;;2.73;;
36443;SDS011;24692;45.642;13.806;2024-02-23T03:19:32;4.57;;;2.50;;
36443;SDS011;24692;45.642;13.806;2024-02-23T03:21:58;6.03;;;2.70;;
36443;SDS011;24692;45.642;13.806;2024-02-23T03:24:24;5.47;;;2.70;;
36443;SDS011;24692;45.642;13.806;2024-02-23T03:26:50;4.77;;;2.70;;
36443;SDS011;24692;45.642;13.806;2024-02-23T03:29:15;3.70;;;2.50;;
36443;SDS011;24692;45.642;13.806;2024-02-23T03:31:41;5.80;;;3.00;;
36443;SDS011;24692;45.642;13.806;2024-02-23T03:34:07;5.00;;;2.70;;
36443;SDS011;24692;45.642;13.806;2024-02-23T03:36:33;6.83;;;2.80;;
36443;SDS011;24692;45.642;13.806;2024-02-23T03:38:59;5.07;;;2.60;;
36443;SDS011;24692;45.642;13.806;2024-02-23T03:41:25;3.97;;;2.63;;
36443;SDS011;24692;45.642;13.806;2024-02-23T03:43:51;6.03;;;2.97;;
36443;SDS011;24692;45.642;13.806;2024-02-23T03:46:17;3.83;;;2.50;;
36443;SDS011;24692;45.642;13.806;2024-02-23T03:48:43;5.37;;;2.40;;
36443;SDS011;24692;45.642;13.806;2024-02-23T03:51:09;5.77;;;3.00;;
36443;SDS011;24692;45.642;13.806;2024-02-23T03:53:35;3.93;;;2.40;;
36443;SDS011;24692;45.642;13.806;2024-02-23T03:56:01;4.27;;;2.50;;
36443;SDS011;24692;45.642;13.806;2024-02-23T03:58:26;4.97;;;2.50;;
36443;SDS011;24692;45.642;13.806;2024-02-23T04:00:52;3.00;;;2.50;;
36443;SDS011;24692;45.642;13.806;2024-02-23T04:03:18;5.80;;;2.57;;
36443;SDS011;24692;45.642;13.806;2024-02-23T04:05:43;4.90;;;2.47;;
36443;SDS011;24692;45.642;13.806;2024-02-23T04:08:09;4.77;;;2.40;;
36443;SDS011;24692;45.642;13.806;2024-02-23T04:10:35;3.10;;;2.40;;
36443;SDS011;24692;45.642;13.806;2024-02-23T04:13:01;3.33;;;2.10;;
36443;SDS011;24692;45.642;13.806;2024-02-23T04:15:26;4.87;;;2.70;;
36443;SDS011;24692;45.642;13.806;2024-02-23T04:17:52;7.17;;;2.20;;
36443;SDS011;24692;45.642;13.806;2024-02-23T04:20:18;4.20;;;2.50;;
36443;SDS011;24692;45.642;13.806;2024-02-23T04:22:44;6.07;;;2.53;;
36443;SDS011;24692;45.642;13.806;2024-02-23T04:25:09;6.20;;;2.60;;
36443;SDS011;24692;45.642;13.806;2024-02-23T04:27:35;5.13;;;2.43;;
36443;SDS011;24692;45.642;13.806;2024-02-23T04:30:01;5.40;;;2.40;;
36443;SDS011;24692;45.642;13.806;2024-02-23T04:32:27;5.20;;;2.43;;
36443;SDS011;24692;45.642;13.806;2024-02-23T04:34:53;5.70;;;2.57;;
36443;SDS011;24692;45.642;13.806;2024-02-23T04:37:19;4.40;;;2.13;;
36443;SDS011;24692;45.642;13.806;2024-02-23T04:39:44;6.00;;;2.47;;
36443;SDS011;24692;45.642;13.806;2024-02-23T04:42:10;4.27;;;2.00;;
36443;SDS011;24692;45.642;13.806;2024-02-23T04:44:36;5.17;;;2.13;;
36443;SDS011;24692;45.642;13.806;2024-02-23T04:47:02;3.83;;;2.03;;
36443;SDS011;24692;45.642;13.806;2024-02-23T04:49:27;6.33;;;2.23;;
36443;SDS011;24692;45.642;13.806;2024-02-23T04:51:53;4.97;;;2.07;;
36443;SDS011;24692;45.642;13.806;2024-02-23T04:54:19;2.40;;;2.00;;
36443;SDS011;24692;45.642;13.806;2024-02-23T04:56:46;2.97;;;2.10;;
36443;SDS011;24692;45.642;13.806;2024-02-23T04:59:12;3.53;;;2.13;;
36443;SDS011;24692;45.642;13.806;2024-02-23T05:01:38;4.17;;;2.00;;
36443;SDS011;24692;45.642;13.806;2024-02-23T05:04:04;3.07;;;1.77;;
36443;SDS011;24692;45.642;13.806;2024-02-23T05:06:30;3.17;;;1.93;;
36443;SDS011;24692;45.642;13.806;2024-02-23T05:08:55;3.30;;;2.10;;
36443;SDS011;24692;45.642;13.806;2024-02-23T05:11:21;2.30;;;1.90;;
36443;SDS011;24692;45.642;13.806;2024-02-23T05:13:47;3.30;;;1.97;;
36443;SDS011;24692;45.642;13.806;2024-02-23T05:16:16;2.20;;;1.90;;
36443;SDS011;24692;45.642;13.806;2024-02-23T05:18:42;3.30;;;1.80;;
36443;SDS011;24692;45.642;13.806;2024-02-23T05:21:08;2.77;;;1.87;;
36443;SDS011;24692;45.642;13.806;2024-02-23T05:23:35;2.90;;;1.90;;
36443;SDS011;24692;45.642;13.806;2024-02-23T05:26:00;2.20;;;2.00;;
36443;SDS011;24692;45.642;13.806;2024-02-23T05:28:26;3.80;;;1.90;;
36443;SDS011;24692;45.642;13.806;2024-02-23T05:30:53;2.47;;;1.50;;
36443;SDS011;24692;45.642;13.806;2024-02-23T05:33:19;3.53;;;1.93;;
36443;SDS011;24692;45.642;13.806;2024-02-23T05:35:48;2.67;;;1.93;;
36443;SDS011;24692;45.642;13.806;2024-02-23T05:38:14;2.20;;;1.90;;
36443;SDS011;24692;45.642;13.806;2024-02-23T05:40:40;3.17;;;1.97;;
36443;SDS011;24692;45.642;13.806;2024-02-23T05:43:06;2.67;;;2.00;;
36443;SDS011;24692;45.642;13.806;2024-02-23T05:45:31;2.53;;;1.80;;
36443;SDS011;24692;45.642;13.806;2024-02-23T05:47:58;2.73;;;1.80;;
36443;SDS011;24692;45.642;13.806;2024-02-23T05:50:23;5.67;;;1.83;;
36443;SDS011;24692;45.642;13.806;2024-02-23T05:52:49;2.90;;;1.77;;
36443;SDS011;24692;45.642;13.806;2024-02-23T05:55:15;4.63;;;1.83;;
36443;SDS011;24692;45.642;13.806;2024-02-23T05:57:41;1.97;;;1.60;;
36443;SDS011;24692;45.642;13.806;2024-02-23T06:00:07;1.60;;;1.50;;
36443;SDS011;24692;45.642;13.806;2024-02-23T06:02:33;1.87;;;1.63;;
36443;SDS011;24692;45.642;13.806;2024-02-23T06:04:59;3.03;;;1.60;;
36443;SDS011;24692;45.642;13.806;2024-02-23T06:07:24;3.00;;;1.70;;
36443;SDS011;24692;45.642;13.806;2024-02-23T06:09:54;4.30;;;1.87;;
36443;SDS011;24692;45.642;13.806;2024-02-23T06:12:21;2.57;;;1.60;;
36443;SDS011;24692;45.642;13.806;2024-02-23T06:14:47;2.83;;;1.90;;
36443;SDS011;24692;45.642;13.806;2024-02-23T06:17:12;2.93;;;1.70;;
36443;SDS011;24692;45.642;13.806;2024-02-23T06:19:38;3.13;;;1.50;;
36443;SDS011;24692;45.642;13.806;2024-02-23T06:22:03;1.83;;;1.73;;
36443;SDS011;24692;45.642;13.806;2024-02-23T06:24:29;3.80;;;1.90;;
36443;SDS011;24692;45.642;13.806;2024-02-23T06:26:55;2.83;;;1.93;;
36443;SDS011;24692;45.642;13.806;2024-02-23T06:29:22;2.93;;;1.93;;
36443;SDS011;24692;45.642;13.806;2024-02-23T06:31:48;2.33;;;2.00;;
36443;SDS011;24692;45.642;13.806;2024-02-23T06:34:14;3.60;;;2.40;;
36443;SDS011;24692;45.642;13.806;2024-02-23T06:36:41;2.67;;;1.87;;
36443;SDS011;24692;45.642;13.806;2024-02-23T06:39:07;3.83;;;2.30;;
36443;SDS011;24692;45.642;13.806;2024-02-23T06:41:33;4.77;;;2.50;;
36443;SDS011;24692;45.642;13.806;2024-02-23T06:43:59;4.80;;;2.30;;
36443;SDS011;24692;45.642;13.806;2024-02-23T06:46:25;6.03;;;3.13;;
36443;SDS011;24692;45.642;13.806;2024-02-23T06:48:51;5.90;;;2.90;;
36443;SDS011;24692;45.642;13.806;2024-02-23T06:51:17;4.80;;;2.93;;
36443;SDS011;24692;45.642;13.806;2024-02-23T06:53:42;10.67;;;3.40;;
36443;SDS011;24692;45.642;13.806;2024-02-23T06:56:08;5.63;;;3.17;;
36443;SDS011;24692;45.642;13.806;2024-02-23T06:58:34;11.03;;;3.90;;
36443;SDS011;24692;45.642;13.806;2024-02-23T07:01:00;5.97;;;3.57;;
36443;SDS011;24692;45.642;13.806;2024-02-23T07:03:28;13.37;;;3.37;;
36443;SDS011;24692;45.642;13.806;2024-02-23T07:05:56;7.27;;;3.37;;
36443;SDS011;24692;45.642;13.806;2024-02-23T07:08:21;7.47;;;3.87;;
36443;SDS011;24692;45.642;13.806;2024-02-23T07:10:47;9.73;;;4.13;;
36443;SDS011;24692;45.642;13.806;2024-02-23T07:13:13;5.10;;;3.40;;
36443;SDS011;24692;45.642;13.806;2024-02-23T07:15:38;15.23;;;4.27;;
36443;SDS011;24692;45.642;13.806;2024-02-23T07:18:04;9.57;;;3.90;;
36443;SDS011;24692;45.642;13.806;2024-02-23T07:20:30;8.57;;;3.73;;
36443;SDS011;24692;45.642;13.806;2024-02-23T07:22:56;9.63;;;3.70;;
36443;SDS011;24692;45.642;13.806;2024-02-23T07:25:22;12.57;;;4.00;;
36443;SDS011;24692;45.642;13.806;2024-02-23T07:27:47;8.70;;;4.03;;
36443;SDS011;24692;45.642;13.806;2024-02-23T07:30:16;10.80;;;4.43;;
36443;SDS011;24692;45.642;13.806;2024-02-23T07:32:42;13.97;;;4.70;;
36443;SDS011;24692;45.642;13.806;2024-02-23T07:35:09;6.63;;;4.10;;
36443;SDS011;24692;45.642;13.806;2024-02-23T07:37:38;8.20;;;4.00;;
36443;SDS011;24692;45.642;13.806;2024-02-23T07:40:04;10.10;;;3.90;;
36443;SDS011;24692;45.642;13.806;2024-02-23T07:42:31;10.60;;;4.37;;
36443;SDS011;24692;45.642;13.806;2024-02-23T07:44:57;9.27;;;4.37;;
36443;SDS011;24692;45.642;13.806;2024-02-23T07:47:23;9.93;;;3.60;;
36443;SDS011;24692;45.642;13.806;2024-02-23T07:49:49;8.30;;;4.00;;
36443;SDS011;24692;45.642;13.806;2024-02-23T07:52:16;9.43;;;3.90;;
36443;SDS011;24692;45.642;13.806;2024-02-23T07:54:41;8.03;;;3.77;;
36443;SDS011;24692;45.642;13.806;2024-02-23T07:57:07;9.70;;;4.17;;
36443;SDS011;24692;45.642;13.806;2024-02-23T07:59:33;8.13;;;3.90;;
36443;SDS011;24692;45.642;13.806;2024-02-23T08:01:58;8.50;;;3.80;;
36443;SDS011;24692;45.642;13.806;2024-02-23T08:04:24;11.00;;;3.90;;
36443;SDS011;24692;45.642;13.806;2024-02-23T08:06:51;8.87;;;3.80;;
36443;SDS011;24692;45.642;13.806;2024-02-23T08:09:17;9.50;;;4.00;;
36443;SDS011;24692;45.642;13.806;2024-02-23T08:11:42;10.30;;;4.03;;
36443;SDS011;24692;45.642;13.806;2024-02-23T08:14:08;8.07;;;3.73;;
36443;SDS011;24692;45.642;13.806;2024-02-23T08:16:34;7.07;;;3.90;;
36443;SDS011;24692;45.642;13.806;2024-02-23T08:19:00;9.30;;;4.23;;
36443;SDS011;24692;45.642;13.806;2024-02-23T08:21:26;9.73;;;4.13;;
36443;SDS011;24692;45.642;13.806;2024-02-23T08:23:52;10.30;;;3.57;;
36443;SDS011;24692;45.642;13.806;2024-02-23T08:26:17;9.57;;;3.97;;
36443;SDS011;24692;45.642;13.806;2024-02-23T08:28:43;8.67;;;4.30;;
36443;SDS011;24692;45.642;13.806;2024-02-23T08:31:09;10.37;;;3.90;;
36443;SDS011;24692;45.642;13.806;2024-02-23T08:33:35;7.93;;;4.30;;
36443;SDS011;24692;45.642;13.806;2024-02-23T08:36:00;5.90;;;3.87;;
36443;SDS011;24692;45.642;13.806;2024-02-23T08:38:26;11.03;;;5.13;;
36443;SDS011;24692;45.642;13.806;2024-02-23T08:40:52;7.67;;;4.20;;
36443;SDS011;24692;45.642;13.806;2024-02-23T08:43:18;8.70;;;4.00;;
36443;SDS011;24692;45.642;13.806;2024-02-23T08:45:45;8.30;;;4.40;;
36443;SDS011;24692;45.642;13.806;2024-02-23T08:48:10;9.33;;;4.20;;
36443;SDS011;24692;45.642;13.806;2024-02-23T08:50:40;11.17;;;4.97;;
36443;SDS011;24692;45.642;13.806;2024-02-23T08:53:05;6.67;;;4.10;;
36443;SDS011;24692;45.642;13.806;2024-02-23T08:55:32;9.53;;;4.30;;
36443;SDS011;24692;45.642;13.806;2024-02-23T08:57:58;9.17;;;4.70;;
36443;SDS011;24692;45.642;13.806;2024-02-23T09:00:24;9.77;;;5.00;;
36443;SDS011;24692;45.642;13.806;2024-02-23T09:02:50;8.30;;;4.37;;
36443;SDS011;24692;45.642;13.806;2024-02-23T09:05:15;10.43;;;4.73;;
36443;SDS011;24692;45.642;13.806;2024-02-23T09:07:41;10.77;;;4.10;;
36443;SDS011;24692;45.642;13.806;2024-02-23T09:10:07;10.80;;;4.50;;
36443;SDS011;24692;45.642;13.806;2024-02-23T09:12:33;13.40;;;3.80;;
36443;SDS011;24692;45.642;13.806;2024-02-23T09:14:59;10.70;;;3.90;;
36443;SDS011;24692;45.642;13.806;2024-02-23T09:17:25;7.10;;;3.87;;
36443;SDS011;24692;45.642;13.806;2024-02-23T09:19:50;8.40;;;4.37;;
36443;SDS011;24692;45.642;13.806;2024-02-23T09:22:16;10.17;;;4.43;;
36443;SDS011;24692;45.642;13.806;2024-02-23T09:24:43;12.10;;;4.27;;
36443;SDS011;24692;45.642;13.806;2024-02-23T09:27:09;10.17;;;4.53;;
36443;SDS011;24692;45.642;13.806;2024-02-23T09:29:35;12.47;;;3.90;;
36443;SDS011;24692;45.642;13.806;2024-02-23T09:32:00;13.80;;;4.53;;
36443;SDS011;24692;45.642;13.806;2024-02-23T09:34:26;12.40;;;4.30;;
36443;SDS011;24692;45.642;13.806;2024-02-23T09:36:52;7.90;;;4.40;;
36443;SDS011;24692;45.642;13.806;2024-02-23T09:39:18;10.40;;;4.97;;
36443;SDS011;24692;45.642;13.806;2024-02-23T09:41:45;11.80;;;4.63;;
36443;SDS011;24692;45.642;13.806;2024-02-23T09:44:14;10.00;;;4.93;;
36443;SDS011;24692;45.642;13.806;2024-02-23T09:46:43;10.83;;;5.13;;
36443;SDS011;24692;45.642;13.806;2024-02-23T09:49:10;10.23;;;5.00;;
36443;SDS011;24692;45.642;13.806;2024-02-23T09:51:36;13.23;;;4.80;;
36443;SDS011;24692;45.642;13.806;2024-02-23T09:54:04;9.77;;;4.80;;
36443;SDS011;24692;45.642;13.806;2024-02-23T09:56:30;10.87;;;4.60;;
36443;SDS011;24692;45.642;13.806;2024-02-23T09:59:00;12.93;;;4.53;;
36443;SDS011;24692;45.642;13.806;2024-02-23T10:01:28;10.57;;;4.90;;
36443;SDS011;24692;45.642;13.806;2024-02-23T10:03:56;11.67;;;5.20;;
36443;SDS011;24692;45.642;13.806;2024-02-23T10:06:23;12.67;;;4.93;;
36443;SDS011;24692;45.642;13.806;2024-02-23T10:08:50;10.03;;;5.07;;
36443;SDS011;24692;45.642;13.806;2024-02-23T10:11:19;16.97;;;5.37;;
36443;SDS011;24692;45.642;13.806;2024-02-23T10:13:46;11.27;;;4.50;;
36443;SDS011;24692;45.642;13.806;2024-02-23T10:16:14;11.13;;;5.03;;
36443;SDS011;24692;45.642;13.806;2024-02-23T10:18:45;8.27;;;4.73;;
36443;SDS011;24692;45.642;13.806;2024-02-23T10:21:13;13.27;;;4.87;;
36443;SDS011;24692;45.642;13.806;2024-02-23T10:23:43;10.47;;;4.70;;
36443;SDS011;24692;45.642;13.806;2024-02-23T10:26:10;12.37;;;5.10;;
36443;SDS011;24692;45.642;13.806;2024-02-23T10:28:36;13.47;;;4.97;;
36443;SDS011;24692;45.642;13.806;2024-02-23T10:31:06;12.83;;;4.97;;
36443;SDS011;24692;45.642;13.806;2024-02-23T10:33:31;12.80;;;4.73;;
36443;SDS011;24692;45.642;13.806;2024-02-23T10:35:57;11.17;;;5.20;;
36443;SDS011;24692;45.642;13.806;2024-02-23T10:38:28;12.13;;;5.47;;
36443;SDS011;24692;45.642;13.806;2024-02-23T10:40:57;9.93;;;4.60;;
36443;SDS011;24692;45.642;13.806;2024-02-23T10:43:56;14.67;;;5.63;;
36443;SDS011;24692;45.642;13.806;2024-02-23T10:46:16;12.37;;;5.30;;
36443;SDS011;24692;45.642;13.806;2024-02-23T10:48:43;12.00;;;5.10;;
36443;SDS011;24692;45.642;13.806;2024-02-23T10:51:10;15.40;;;5.63;;
36443;SDS011;24692;45.642;13.806;2024-02-23T10:53:36;15.17;;;5.70;;
36443;SDS011;24692;45.642;13.806;2024-02-23T10:56:04;17.60;;;5.67;;
36443;SDS011;24692;45.642;13.806;2024-02-23T10:58:30;15.17;;;5.50;;
36443;SDS011;24692;45.642;13.806;2024-02-23T11:01:00;15.27;;;5.80;;
36443;SDS011;24692;45.642;13.806;2024-02-23T11:03:30;14.27;;;5.50;;
36443;SDS011;24692;45.642;13.806;2024-02-23T11:05:59;19.80;;;6.00;;
36443;SDS011;24692;45.642;13.806;2024-02-23T11:08:27;15.33;;;5.33;;
36443;SDS011;24692;45.642;13.806;2024-02-23T11:10:53;10.30;;;5.30;;
36443;SDS011;24692;45.642;13.806;2024-02-23T11:13:34;10.73;;;5.87;;
36443;SDS011;24692;45.642;13.806;2024-02-23T11:16:04;13.77;;;6.10;;
36443;SDS011;24692;45.642;13.806;2024-02-23T11:18:30;16.27;;;5.77;;
36443;SDS011;24692;45.642;13.806;2024-02-23T11:20:59;18.07;;;6.33;;
36443;SDS011;24692;45.642;13.806;2024-02-23T11:23:47;18.63;;;6.30;;
36443;SDS011;24692;45.642;13.806;2024-02-23T11:26:14;15.07;;;6.00;;
36443;SDS011;24692;45.642;13.806;2024-02-23T11:31:19;14.00;;;6.20;;
36443;SDS011;24692;45.642;13.806;2024-02-23T11:33:49;13.53;;;6.80;;
36443;SDS011;24692;45.642;13.806;2024-02-23T11:38:59;18.93;;;5.73;;
36443;SDS011;24692;45.642;13.806;2024-02-23T11:41:25;15.57;;;6.60;;
36443;SDS011;24692;45.642;13.806;2024-02-23T11:43:53;14.87;;;6.70;;
36443;SDS011;24692;45.642;13.806;2024-02-23T11:46:20;16.27;;;6.80;;
36443;SDS011;24692;45.642;13.806;2024-02-23T11:48:47;15.90;;;5.50;;
36443;SDS011;24692;45.642;13.806;2024-02-23T11:51:18;16.23;;;6.03;;
36443;SDS011;24692;45.642;13.806;2024-02-23T11:53:45;14.87;;;6.27;;
36443;SDS011;24692;45.642;13.806;2024-02-23T11:56:11;18.70;;;7.47;;
36443;SDS011;24692;45.642;13.806;2024-02-23T11:58:36;17.50;;;6.90;;
36443;SDS011;24692;45.642;13.806;2024-02-23T12:01:02;19.20;;;6.87;;
36443;SDS011;24692;45.642;13.806;2024-02-23T12:03:29;13.27;;;6.20;;
36443;SDS011;24692;45.642;13.806;2024-02-23T12:05:57;19.73;;;6.30;;
36443;SDS011;24692;45.642;13.806;2024-02-23T12:08:27;23.27;;;7.10;;
36443;SDS011;24692;45.642;13.806;2024-02-23T12:10:54;19.07;;;6.73;;
36443;SDS011;24692;45.642;13.806;2024-02-23T12:13:21;15.70;;;6.70;;
36443;SDS011;24692;45.642;13.806;2024-02-23T12:15:48;15.63;;;6.60;;
36443;SDS011;24692;45.642;13.806;2024-02-23T12:18:17;14.00;;;6.83;;
36443;SDS011;24692;45.642;13.806;2024-02-23T12:20:48;19.03;;;6.90;;
36443;SDS011;24692;45.642;13.806;2024-02-23T12:23:14;15.60;;;5.90;;
36443;SDS011;24692;45.642;13.806;2024-02-23T12:25:40;17.17;;;6.50;;
36443;SDS011;24692;45.642;13.806;2024-02-23T12:28:18;20.87;;;6.93;;
36443;SDS011;24692;45.642;13.806;2024-02-23T12:30:43;20.70;;;6.83;;
36443;SDS011;24692;45.642;13.806;2024-02-23T12:33:11;16.87;;;6.10;;
36443;SDS011;24692;45.642;13.806;2024-02-23T12:35:41;15.47;;;6.47;;
36443;SDS011;24692;45.642;13.806;2024-02-23T12:38:06;19.27;;;6.93;;
36443;SDS011;24692;45.642;13.806;2024-02-23T12:40:32;14.70;;;6.77;;
36443;SDS011;24692;45.642;13.806;2024-02-23T12:42:58;15.43;;;6.97;;
36443;SDS011;24692;45.642;13.806;2024-02-23T12:45:23;25.00;;;8.17;;
36443;SDS011;24692;45.642;13.806;2024-02-23T12:47:49;15.03;;;6.23;;
36443;SDS011;24692;45.642;13.806;2024-02-23T12:50:15;17.67;;;7.27;;
36443;SDS011;24692;45.642;13.806;2024-02-23T12:52:41;21.57;;;7.70;;
36443;SDS011;24692;45.642;13.806;2024-02-23T12:55:08;18.03;;;6.73;;
36443;SDS011;24692;45.642;13.806;2024-02-23T12:57:34;19.27;;;7.80;;
36443;SDS011;24692;45.642;13.806;2024-02-23T12:59:59;20.13;;;6.70;;
36443;SDS011;24692;45.642;13.806;2024-02-23T13:02:25;20.63;;;7.33;;
36443;SDS011;24692;45.642;13.806;2024-02-23T13:04:51;16.83;;;7.30;;
36443;SDS011;24692;45.642;13.806;2024-02-23T13:07:17;17.73;;;7.93;;
36443;SDS011;24692;45.642;13.806;2024-02-23T13:09:43;19.87;;;8.37;;
36443;SDS011;24692;45.642;13.806;2024-02-23T13:12:09;25.77;;;8.07;;
36443;SDS011;24692;45.642;13.806;2024-02-23T13:14:35;19.63;;;8.03;;
36443;SDS011;24692;45.642;13.806;2024-02-23T13:17:00;14.73;;;6.00;;
36443;SDS011;24692;45.642;13.806;2024-02-23T13:19:26;16.63;;;6.97;;
36443;SDS011;24692;45.642;13.806;2024-02-23T13:21:52;21.60;;;8.17;;
36443;SDS011;24692;45.642;13.806;2024-02-23T13:24:18;18.90;;;7.43;;
36443;SDS011;24692;45.642;13.806;2024-02-23T13:26:44;14.23;;;7.07;;
36443;SDS011;24692;45.642;13.806;2024-02-23T13:29:09;17.87;;;7.70;;
36443;SDS011;24692;45.642;13.806;2024-02-23T13:31:35;15.63;;;7.87;;
36443;SDS011;24692;45.642;13.806;2024-02-23T13:34:03;21.70;;;7.70;;
36443;SDS011;24692;45.642;13.806;2024-02-23T13:36:28;17.80;;;7.53;;
36443;SDS011;24692;45.642;13.806;2024-02-23T13:38:54;16.93;;;7.87;;
36443;SDS011;24692;45.642;13.806;2024-02-23T13:41:20;19.20;;;7.83;;
36443;SDS011;24692;45.642;13.806;2024-02-23T13:43:45;17.73;;;7.93;;
36443;SDS011;24692;45.642;13.806;2024-02-23T13:46:11;14.77;;;7.33;;
36443;SDS011;24692;45.642;13.806;2024-02-23T13:48:37;14.73;;;8.03;;
36443;SDS011;24692;45.642;13.806;2024-02-23T13:51:03;16.47;;;8.13;;
36443;SDS011;24692;45.642;13.806;2024-02-23T13:53:30;19.87;;;8.17;;
36443;SDS011;24692;45.642;13.806;2024-02-23T13:55:56;16.13;;;8.47;;
36443;SDS011;24692;45.642;13.806;2024-02-23T13:58:22;14.37;;;7.90;;
36443;SDS011;24692;45.642;13.806;2024-02-23T14:00:48;13.23;;;8.00;;
36443;SDS011;24692;45.642;13.806;2024-02-23T14:03:15;19.73;;;8.47;;
36443;SDS011;24692;45.642;13.806;2024-02-23T14:05:45;20.50;;;8.57;;
36443;SDS011;24692;45.642;13.806;2024-02-23T14:08:12;16.23;;;8.13;;
36443;SDS011;24692;45.642;13.806;2024-02-23T14:10:37;19.53;;;8.00;;
36443;SDS011;24692;45.642;13.806;2024-02-23T14:13:05;16.23;;;9.00;;
36443;SDS011;24692;45.642;13.806;2024-02-23T14:15:30;16.73;;;8.17;;
36443;SDS011;24692;45.642;13.806;2024-02-23T14:17:57;13.43;;;7.27;;
36443;SDS011;24692;45.642;13.806;2024-02-23T14:20:23;18.27;;;8.53;;
36443;SDS011;24692;45.642;13.806;2024-02-23T14:22:48;13.60;;;7.37;;
36443;SDS011;24692;45.642;13.806;2024-02-23T14:25:15;22.43;;;8.80;;
36443;SDS011;24692;45.642;13.806;2024-02-23T14:27:41;16.23;;;8.10;;
36443;SDS011;24692;45.642;13.806;2024-02-23T14:30:07;28.53;;;9.27;;